sensor_id;sensor_type;location;lat;lon;timestamp;P1;durP1;ratioP1;P2;durP2;ratioP2
35803;SDS011;21924;51.934;7.414;2023-04-07T00:00:55;24.77;;;12.65;;
35803;SDS011;21924;51.934;7.414;2023-04-07T00:03:39;20.15;;;11.05;;
35803;SDS011;21924;51.934;7.414;2023-04-07T00:06:24;21.92;;;11.77;;
35803;SDS011;21924;51.934;7.414;2023-04-07T00:09:08;21.52;;;11.98;;
35803;SDS011;21924;51.934;7.414;2023-04-07T00:11:56;21.60;;;12.60;;
35803;SDS011;21924;51.934;7.414;2023-04-07T00:14:41;24.27;;;12.43;;
35803;SDS011;21924;51.934;7.414;2023-04-07T00:17:25;25.55;;;13.60;;
35803;SDS011;21924;51.934;7.414;2023-04-07T00:20:09;21.85;;;12.65;;
35803;SDS011;21924;51.934;7.414;2023-04-07T00:22:54;24.20;;;12.82;;
35803;SDS011;21924;51.934;7.414;2023-04-07T00:25:38;26.15;;;13.85;;
35803;SDS011;21924;51.934;7.414;2023-04-07T00:28:22;27.60;;;13.45;;
35803;SDS011;21924;51.934;7.414;2023-04-07T00:31:07;25.27;;;13.57;;
35803;SDS011;21924;51.934;7.414;2023-04-07T00:33:51;21.95;;;13.25;;
35803;SDS011;21924;51.934;7.414;2023-04-07T00:36:36;24.10;;;13.00;;
35803;SDS011;21924;51.934;7.414;2023-04-07T00:39:20;24.52;;;13.77;;
35803;SDS011;21924;51.934;7.414;2023-04-07T00:42:04;30.75;;;14.38;;
35803;SDS011;21924;51.934;7.414;2023-04-07T00:44:49;24.30;;;13.60;;
35803;SDS011;21924;51.934;7.414;2023-04-07T00:47:33;24.38;;;13.30;;
35803;SDS011;21924;51.934;7.414;2023-04-07T00:50:18;27.50;;;14.48;;
35803;SDS011;21924;51.934;7.414;2023-04-07T00:53:02;27.98;;;13.25;;
35803;SDS011;21924;51.934;7.414;2023-04-07T00:55:47;29.33;;;14.50;;
35803;SDS011;21924;51.934;7.414;2023-04-07T00:58:31;24.52;;;13.90;;
35803;SDS011;21924;51.934;7.414;2023-04-07T01:01:20;25.23;;;14.18;;
35803;SDS011;21924;51.934;7.414;2023-04-07T01:04:26;25.08;;;13.48;;
35803;SDS011;21924;51.934;7.414;2023-04-07T01:07:34;30.27;;;13.57;;
35803;SDS011;21924;51.934;7.414;2023-04-07T01:10:34;23.90;;;12.82;;
35803;SDS011;21924;51.934;7.414;2023-04-07T01:13:27;24.35;;;12.68;;
35803;SDS011;21924;51.934;7.414;2023-04-07T01:16:18;24.73;;;13.68;;
35803;SDS011;21924;51.934;7.414;2023-04-07T01:19:12;28.35;;;14.20;;
35803;SDS011;21924;51.934;7.414;2023-04-07T01:22:14;24.55;;;13.27;;
35803;SDS011;21924;51.934;7.414;2023-04-07T01:25:16;25.90;;;13.55;;
35803;SDS011;21924;51.934;7.414;2023-04-07T01:31:48;24.95;;;14.18;;
35803;SDS011;21924;51.934;7.414;2023-04-07T01:34:33;21.95;;;11.77;;
35803;SDS011;21924;51.934;7.414;2023-04-07T01:37:19;24.85;;;13.25;;
35803;SDS011;21924;51.934;7.414;2023-04-07T01:40:06;27.58;;;14.70;;
35803;SDS011;21924;51.934;7.414;2023-04-07T01:42:50;24.63;;;13.63;;
35803;SDS011;21924;51.934;7.414;2023-04-07T01:45:36;25.67;;;13.60;;
35803;SDS011;21924;51.934;7.414;2023-04-07T01:48:21;24.85;;;12.88;;
35803;SDS011;21924;51.934;7.414;2023-04-07T01:51:05;25.58;;;13.70;;
35803;SDS011;21924;51.934;7.414;2023-04-07T01:53:54;20.50;;;12.35;;
35803;SDS011;21924;51.934;7.414;2023-04-07T01:56:39;26.17;;;13.63;;
35803;SDS011;21924;51.934;7.414;2023-04-07T01:59:23;22.95;;;12.82;;
35803;SDS011;21924;51.934;7.414;2023-04-07T02:02:07;23.08;;;13.10;;
35803;SDS011;21924;51.934;7.414;2023-04-07T02:04:55;25.77;;;13.27;;
35803;SDS011;21924;51.934;7.414;2023-04-07T02:07:51;22.95;;;12.60;;
35803;SDS011;21924;51.934;7.414;2023-04-07T02:10:40;23.80;;;13.73;;
35803;SDS011;21924;51.934;7.414;2023-04-07T02:13:25;24.73;;;12.45;;
35803;SDS011;21924;51.934;7.414;2023-04-07T02:16:11;24.50;;;13.07;;
35803;SDS011;21924;51.934;7.414;2023-04-07T02:18:56;27.67;;;13.68;;
35803;SDS011;21924;51.934;7.414;2023-04-07T02:21:42;26.88;;;13.77;;
35803;SDS011;21924;51.934;7.414;2023-04-07T02:24:27;24.73;;;15.07;;
35803;SDS011;21924;51.934;7.414;2023-04-07T02:27:12;22.80;;;12.98;;
35803;SDS011;21924;51.934;7.414;2023-04-07T02:29:56;25.02;;;14.30;;
35803;SDS011;21924;51.934;7.414;2023-04-07T02:32:40;25.35;;;14.27;;
35803;SDS011;21924;51.934;7.414;2023-04-07T02:35:24;24.85;;;13.02;;
35803;SDS011;21924;51.934;7.414;2023-04-07T02:38:09;23.13;;;12.68;;
35803;SDS011;21924;51.934;7.414;2023-04-07T02:40:53;24.98;;;13.57;;
35803;SDS011;21924;51.934;7.414;2023-04-07T02:43:38;23.70;;;12.48;;
35803;SDS011;21924;51.934;7.414;2023-04-07T02:46:22;23.92;;;13.18;;
35803;SDS011;21924;51.934;7.414;2023-04-07T02:49:06;22.92;;;12.95;;
35803;SDS011;21924;51.934;7.414;2023-04-07T02:51:50;27.55;;;14.50;;
35803;SDS011;21924;51.934;7.414;2023-04-07T02:54:34;21.83;;;11.70;;
35803;SDS011;21924;51.934;7.414;2023-04-07T02:57:19;21.83;;;12.20;;
35803;SDS011;21924;51.934;7.414;2023-04-07T03:00:03;24.25;;;13.30;;
35803;SDS011;21924;51.934;7.414;2023-04-07T03:02:48;21.70;;;12.55;;
35803;SDS011;21924;51.934;7.414;2023-04-07T03:05:32;26.88;;;13.50;;
35803;SDS011;21924;51.934;7.414;2023-04-07T03:08:16;23.15;;;12.82;;
35803;SDS011;21924;51.934;7.414;2023-04-07T03:11:01;20.73;;;12.50;;
35803;SDS011;21924;51.934;7.414;2023-04-07T03:13:45;23.33;;;12.55;;
35803;SDS011;21924;51.934;7.414;2023-04-07T03:16:29;21.90;;;12.45;;
35803;SDS011;21924;51.934;7.414;2023-04-07T03:19:13;22.17;;;11.68;;
35803;SDS011;21924;51.934;7.414;2023-04-07T03:21:59;20.23;;;12.18;;
35803;SDS011;21924;51.934;7.414;2023-04-07T03:24:43;26.25;;;13.60;;
35803;SDS011;21924;51.934;7.414;2023-04-07T03:27:27;22.67;;;12.13;;
35803;SDS011;21924;51.934;7.414;2023-04-07T03:30:11;24.27;;;13.15;;
35803;SDS011;21924;51.934;7.414;2023-04-07T03:32:56;23.83;;;12.73;;
35803;SDS011;21924;51.934;7.414;2023-04-07T03:35:41;20.77;;;12.98;;
35803;SDS011;21924;51.934;7.414;2023-04-07T03:38:25;23.08;;;12.80;;
35803;SDS011;21924;51.934;7.414;2023-04-07T03:41:09;21.42;;;12.40;;
35803;SDS011;21924;51.934;7.414;2023-04-07T03:43:54;24.05;;;13.05;;
35803;SDS011;21924;51.934;7.414;2023-04-07T03:46:38;20.73;;;12.50;;
35803;SDS011;21924;51.934;7.414;2023-04-07T03:49:22;21.35;;;12.73;;
35803;SDS011;21924;51.934;7.414;2023-04-07T03:52:06;23.13;;;13.32;;
35803;SDS011;21924;51.934;7.414;2023-04-07T03:54:51;24.65;;;14.20;;
35803;SDS011;21924;51.934;7.414;2023-04-07T03:57:35;27.00;;;13.82;;
35803;SDS011;21924;51.934;7.414;2023-04-07T04:00:19;26.48;;;13.18;;
35803;SDS011;21924;51.934;7.414;2023-04-07T04:03:03;23.98;;;13.73;;
35803;SDS011;21924;51.934;7.414;2023-04-07T04:05:48;27.13;;;14.45;;
35803;SDS011;21924;51.934;7.414;2023-04-07T04:08:32;25.05;;;13.02;;
35803;SDS011;21924;51.934;7.414;2023-04-07T04:11:16;25.77;;;14.10;;
35803;SDS011;21924;51.934;7.414;2023-04-07T04:14:01;28.15;;;14.85;;
35803;SDS011;21924;51.934;7.414;2023-04-07T04:16:45;28.08;;;13.45;;
35803;SDS011;21924;51.934;7.414;2023-04-07T04:19:29;27.13;;;15.20;;
35803;SDS011;21924;51.934;7.414;2023-04-07T04:22:14;27.83;;;14.45;;
35803;SDS011;21924;51.934;7.414;2023-04-07T04:24:58;26.00;;;15.55;;
35803;SDS011;21924;51.934;7.414;2023-04-07T04:27:43;30.20;;;15.57;;
35803;SDS011;21924;51.934;7.414;2023-04-07T04:30:27;32.75;;;15.13;;
35803;SDS011;21924;51.934;7.414;2023-04-07T04:33:11;33.10;;;16.80;;
35803;SDS011;21924;51.934;7.414;2023-04-07T04:35:55;30.13;;;15.38;;
35803;SDS011;21924;51.934;7.414;2023-04-07T04:38:40;29.08;;;15.65;;
35803;SDS011;21924;51.934;7.414;2023-04-07T04:41:24;26.67;;;13.88;;
35803;SDS011;21924;51.934;7.414;2023-04-07T04:44:08;27.13;;;13.63;;
35803;SDS011;21924;51.934;7.414;2023-04-07T04:46:52;25.65;;;13.80;;
35803;SDS011;21924;51.934;7.414;2023-04-07T04:49:37;28.10;;;14.20;;
35803;SDS011;21924;51.934;7.414;2023-04-07T04:52:22;25.52;;;13.82;;
35803;SDS011;21924;51.934;7.414;2023-04-07T04:55:06;25.63;;;14.32;;
35803;SDS011;21924;51.934;7.414;2023-04-07T04:57:51;26.40;;;14.18;;
35803;SDS011;21924;51.934;7.414;2023-04-07T05:00:35;24.30;;;12.98;;
35803;SDS011;21924;51.934;7.414;2023-04-07T05:03:19;25.75;;;14.07;;
35803;SDS011;21924;51.934;7.414;2023-04-07T05:06:04;26.65;;;13.60;;
35803;SDS011;21924;51.934;7.414;2023-04-07T05:08:48;39.05;;;14.05;;
35803;SDS011;21924;51.934;7.414;2023-04-07T05:11:33;24.27;;;13.45;;
35803;SDS011;21924;51.934;7.414;2023-04-07T05:14:17;22.05;;;13.60;;
35803;SDS011;21924;51.934;7.414;2023-04-07T05:17:01;31.73;;;13.65;;
35803;SDS011;21924;51.934;7.414;2023-04-07T05:19:46;24.23;;;12.60;;
35803;SDS011;21924;51.934;7.414;2023-04-07T05:22:30;21.58;;;11.90;;
35803;SDS011;21924;51.934;7.414;2023-04-07T05:25:14;25.52;;;13.63;;
35803;SDS011;21924;51.934;7.414;2023-04-07T05:27:58;26.77;;;13.68;;
35803;SDS011;21924;51.934;7.414;2023-04-07T05:30:43;24.38;;;13.60;;
35803;SDS011;21924;51.934;7.414;2023-04-07T05:33:28;20.75;;;12.60;;
35803;SDS011;21924;51.934;7.414;2023-04-07T05:36:12;23.80;;;13.70;;
35803;SDS011;21924;51.934;7.414;2023-04-07T05:38:56;24.65;;;13.18;;
35803;SDS011;21924;51.934;7.414;2023-04-07T05:41:40;24.27;;;12.98;;
35803;SDS011;21924;51.934;7.414;2023-04-07T05:44:24;28.45;;;13.77;;
35803;SDS011;21924;51.934;7.414;2023-04-07T05:47:09;24.70;;;13.15;;
35803;SDS011;21924;51.934;7.414;2023-04-07T05:49:54;22.98;;;13.23;;
35803;SDS011;21924;51.934;7.414;2023-04-07T05:52:38;27.55;;;14.70;;
35803;SDS011;21924;51.934;7.414;2023-04-07T05:55:23;25.40;;;13.25;;
35803;SDS011;21924;51.934;7.414;2023-04-07T05:58:07;22.00;;;13.30;;
35803;SDS011;21924;51.934;7.414;2023-04-07T06:00:52;24.92;;;13.73;;
35803;SDS011;21924;51.934;7.414;2023-04-07T06:03:36;28.77;;;12.98;;
35803;SDS011;21924;51.934;7.414;2023-04-07T06:06:20;23.17;;;13.18;;
35803;SDS011;21924;51.934;7.414;2023-04-07T06:09:05;20.92;;;12.20;;
35803;SDS011;21924;51.934;7.414;2023-04-07T06:11:49;21.88;;;12.85;;
35803;SDS011;21924;51.934;7.414;2023-04-07T06:14:33;22.05;;;12.80;;
35803;SDS011;21924;51.934;7.414;2023-04-07T06:17:17;28.50;;;14.13;;
35803;SDS011;21924;51.934;7.414;2023-04-07T06:20:02;20.27;;;12.25;;
35803;SDS011;21924;51.934;7.414;2023-04-07T06:22:47;18.90;;;11.70;;
35803;SDS011;21924;51.934;7.414;2023-04-07T06:25:31;19.83;;;11.25;;
35803;SDS011;21924;51.934;7.414;2023-04-07T06:28:15;16.38;;;10.95;;
35803;SDS011;21924;51.934;7.414;2023-04-07T06:31:00;23.65;;;11.95;;
35803;SDS011;21924;51.934;7.414;2023-04-07T06:33:45;21.50;;;12.05;;
35803;SDS011;21924;51.934;7.414;2023-04-07T06:36:29;23.00;;;11.57;;
35803;SDS011;21924;51.934;7.414;2023-04-07T06:39:13;22.40;;;12.60;;
35803;SDS011;21924;51.934;7.414;2023-04-07T06:41:57;21.35;;;11.93;;
35803;SDS011;21924;51.934;7.414;2023-04-07T06:44:41;19.40;;;12.40;;
35803;SDS011;21924;51.934;7.414;2023-04-07T06:47:26;25.90;;;11.35;;
35803;SDS011;21924;51.934;7.414;2023-04-07T06:50:10;17.17;;;10.65;;
35803;SDS011;21924;51.934;7.414;2023-04-07T06:52:55;23.10;;;12.25;;
35803;SDS011;21924;51.934;7.414;2023-04-07T06:55:39;19.85;;;10.90;;
35803;SDS011;21924;51.934;7.414;2023-04-07T06:58:24;17.38;;;11.07;;
35803;SDS011;21924;51.934;7.414;2023-04-07T07:01:08;17.35;;;10.20;;
35803;SDS011;21924;51.934;7.414;2023-04-07T07:03:52;18.83;;;10.40;;
35803;SDS011;21924;51.934;7.414;2023-04-07T07:06:37;18.02;;;11.52;;
35803;SDS011;21924;51.934;7.414;2023-04-07T07:09:21;13.80;;;9.38;;
35803;SDS011;21924;51.934;7.414;2023-04-07T07:12:05;17.27;;;10.50;;
35803;SDS011;21924;51.934;7.414;2023-04-07T07:14:50;18.60;;;10.60;;
35803;SDS011;21924;51.934;7.414;2023-04-07T07:17:34;21.70;;;11.07;;
35803;SDS011;21924;51.934;7.414;2023-04-07T07:20:18;19.13;;;10.40;;
35803;SDS011;21924;51.934;7.414;2023-04-07T07:23:02;17.33;;;9.73;;
35803;SDS011;21924;51.934;7.414;2023-04-07T07:25:47;17.83;;;9.02;;
35803;SDS011;21924;51.934;7.414;2023-04-07T07:28:31;20.02;;;11.70;;
35803;SDS011;21924;51.934;7.414;2023-04-07T07:31:15;17.73;;;9.73;;
35803;SDS011;21924;51.934;7.414;2023-04-07T07:34:00;15.45;;;10.30;;
35803;SDS011;21924;51.934;7.414;2023-04-07T07:36:44;16.92;;;9.05;;
35803;SDS011;21924;51.934;7.414;2023-04-07T07:39:28;14.80;;;9.20;;
35803;SDS011;21924;51.934;7.414;2023-04-07T07:42:13;21.65;;;9.43;;
35803;SDS011;21924;51.934;7.414;2023-04-07T07:44:57;13.57;;;9.48;;
35803;SDS011;21924;51.934;7.414;2023-04-07T07:47:42;17.63;;;11.27;;
35803;SDS011;21924;51.934;7.414;2023-04-07T07:50:26;20.40;;;12.93;;
35803;SDS011;21924;51.934;7.414;2023-04-07T07:53:10;20.33;;;11.60;;
35803;SDS011;21924;51.934;7.414;2023-04-07T07:55:55;16.40;;;10.00;;
35803;SDS011;21924;51.934;7.414;2023-04-07T07:58:39;14.20;;;9.18;;
35803;SDS011;21924;51.934;7.414;2023-04-07T08:01:23;14.50;;;8.85;;
35803;SDS011;21924;51.934;7.414;2023-04-07T08:04:08;13.07;;;7.78;;
35803;SDS011;21924;51.934;7.414;2023-04-07T08:06:52;20.27;;;8.05;;
35803;SDS011;21924;51.934;7.414;2023-04-07T08:09:37;13.82;;;8.15;;
35803;SDS011;21924;51.934;7.414;2023-04-07T08:12:21;14.38;;;8.48;;
35803;SDS011;21924;51.934;7.414;2023-04-07T08:15:06;13.63;;;8.45;;
35803;SDS011;21924;51.934;7.414;2023-04-07T08:17:52;14.48;;;8.18;;
35803;SDS011;21924;51.934;7.414;2023-04-07T08:20:36;14.05;;;7.65;;
35803;SDS011;21924;51.934;7.414;2023-04-07T08:23:21;13.88;;;8.18;;
35803;SDS011;21924;51.934;7.414;2023-04-07T08:26:05;14.13;;;8.25;;
35803;SDS011;21924;51.934;7.414;2023-04-07T08:28:49;17.75;;;9.50;;
35803;SDS011;21924;51.934;7.414;2023-04-07T08:31:34;15.05;;;8.55;;
35803;SDS011;21924;51.934;7.414;2023-04-07T08:34:19;12.25;;;7.78;;
35803;SDS011;21924;51.934;7.414;2023-04-07T08:37:03;13.43;;;7.25;;
35803;SDS011;21924;51.934;7.414;2023-04-07T08:39:48;12.55;;;7.85;;
35803;SDS011;21924;51.934;7.414;2023-04-07T08:42:32;12.52;;;7.05;;
35803;SDS011;21924;51.934;7.414;2023-04-07T08:45:18;17.92;;;8.82;;
35803;SDS011;21924;51.934;7.414;2023-04-07T08:48:07;14.80;;;8.43;;
35803;SDS011;21924;51.934;7.414;2023-04-07T08:51:03;12.27;;;7.78;;
35803;SDS011;21924;51.934;7.414;2023-04-07T08:53:49;11.93;;;8.20;;
35803;SDS011;21924;51.934;7.414;2023-04-07T08:56:36;11.73;;;7.78;;
35803;SDS011;21924;51.934;7.414;2023-04-07T08:59:23;12.90;;;8.13;;
35803;SDS011;21924;51.934;7.414;2023-04-07T09:02:11;13.13;;;7.55;;
35803;SDS011;21924;51.934;7.414;2023-04-07T09:04:57;11.48;;;7.68;;
35803;SDS011;21924;51.934;7.414;2023-04-07T09:07:42;18.15;;;7.93;;
35803;SDS011;21924;51.934;7.414;2023-04-07T09:10:26;11.75;;;7.38;;
35803;SDS011;21924;51.934;7.414;2023-04-07T09:13:10;12.88;;;7.00;;
35803;SDS011;21924;51.934;7.414;2023-04-07T09:15:55;10.93;;;7.70;;
35803;SDS011;21924;51.934;7.414;2023-04-07T09:18:39;10.52;;;6.75;;
35803;SDS011;21924;51.934;7.414;2023-04-07T09:21:25;11.07;;;7.07;;
35803;SDS011;21924;51.934;7.414;2023-04-07T09:24:22;13.90;;;8.30;;
35803;SDS011;21924;51.934;7.414;2023-04-07T09:27:15;15.63;;;8.57;;
35803;SDS011;21924;51.934;7.414;2023-04-07T09:30:11;13.18;;;7.80;;
35803;SDS011;21924;51.934;7.414;2023-04-07T09:32:58;11.55;;;7.07;;
35803;SDS011;21924;51.934;7.414;2023-04-07T09:35:52;10.38;;;6.90;;
35803;SDS011;21924;51.934;7.414;2023-04-07T09:38:38;10.88;;;7.00;;
35803;SDS011;21924;51.934;7.414;2023-04-07T09:41:23;10.90;;;6.95;;
35803;SDS011;21924;51.934;7.414;2023-04-07T09:44:10;12.65;;;6.85;;
35803;SDS011;21924;51.934;7.414;2023-04-07T09:46:55;15.27;;;7.28;;
35803;SDS011;21924;51.934;7.414;2023-04-07T09:49:48;10.70;;;7.30;;
35803;SDS011;21924;51.934;7.414;2023-04-07T09:52:47;11.48;;;7.13;;
35803;SDS011;21924;51.934;7.414;2023-04-07T09:55:32;10.15;;;6.90;;
35803;SDS011;21924;51.934;7.414;2023-04-07T09:58:17;13.05;;;6.22;;
35803;SDS011;21924;51.934;7.414;2023-04-07T10:01:02;12.98;;;8.25;;
35803;SDS011;21924;51.934;7.414;2023-04-07T10:03:46;10.90;;;7.38;;
35803;SDS011;21924;51.934;7.414;2023-04-07T10:06:31;16.10;;;10.93;;
35803;SDS011;21924;51.934;7.414;2023-04-07T10:09:16;13.75;;;8.85;;
35803;SDS011;21924;51.934;7.414;2023-04-07T10:12:01;11.07;;;7.68;;
35803;SDS011;21924;51.934;7.414;2023-04-07T10:14:45;18.52;;;8.10;;
35803;SDS011;21924;51.934;7.414;2023-04-07T10:17:31;10.83;;;6.67;;
35803;SDS011;21924;51.934;7.414;2023-04-07T10:20:16;11.15;;;7.40;;
35803;SDS011;21924;51.934;7.414;2023-04-07T10:23:05;11.65;;;7.15;;
35803;SDS011;21924;51.934;7.414;2023-04-07T10:25:58;13.57;;;7.75;;
35803;SDS011;21924;51.934;7.414;2023-04-07T10:28:45;14.45;;;8.38;;
35803;SDS011;21924;51.934;7.414;2023-04-07T10:31:34;10.65;;;6.82;;
35803;SDS011;21924;51.934;7.414;2023-04-07T10:37:32;12.48;;;7.82;;
35803;SDS011;21924;51.934;7.414;2023-04-07T10:43:01;14.10;;;7.75;;
35803;SDS011;21924;51.934;7.414;2023-04-07T10:48:38;13.18;;;6.30;;
35803;SDS011;21924;51.934;7.414;2023-04-07T10:51:23;9.23;;;6.30;;
35803;SDS011;21924;51.934;7.414;2023-04-07T10:54:14;13.45;;;6.45;;
35803;SDS011;21924;51.934;7.414;2023-04-07T10:57:06;12.40;;;6.82;;
35803;SDS011;21924;51.934;7.414;2023-04-07T11:02:52;14.13;;;6.82;;
35803;SDS011;21924;51.934;7.414;2023-04-07T11:05:36;10.70;;;6.63;;
35803;SDS011;21924;51.934;7.414;2023-04-07T11:08:33;10.38;;;6.25;;
35803;SDS011;21924;51.934;7.414;2023-04-07T11:11:40;11.98;;;6.85;;
35803;SDS011;21924;51.934;7.414;2023-04-07T11:14:28;10.52;;;6.63;;
35803;SDS011;21924;51.934;7.414;2023-04-07T11:17:13;8.90;;;6.35;;
35803;SDS011;21924;51.934;7.414;2023-04-07T11:20:00;12.27;;;6.53;;
35803;SDS011;21924;51.934;7.414;2023-04-07T11:22:57;10.10;;;6.18;;
35803;SDS011;21924;51.934;7.414;2023-04-07T11:25:43;9.00;;;6.30;;
35803;SDS011;21924;51.934;7.414;2023-04-07T11:34:14;9.95;;;5.97;;
35803;SDS011;21924;51.934;7.414;2023-04-07T11:37:17;8.52;;;5.82;;
35803;SDS011;21924;51.934;7.414;2023-04-07T11:40:11;11.95;;;6.65;;
35803;SDS011;21924;51.934;7.414;2023-04-07T11:42:59;8.40;;;5.88;;
35803;SDS011;21924;51.934;7.414;2023-04-07T11:45:44;9.32;;;5.57;;
35803;SDS011;21924;51.934;7.414;2023-04-07T11:48:29;10.43;;;5.32;;
35803;SDS011;21924;51.934;7.414;2023-04-07T11:51:15;8.32;;;5.10;;
35803;SDS011;21924;51.934;7.414;2023-04-07T11:54:02;7.50;;;4.90;;
35803;SDS011;21924;51.934;7.414;2023-04-07T11:56:46;7.28;;;5.13;;
35803;SDS011;21924;51.934;7.414;2023-04-07T11:59:31;14.98;;;3.95;;
35803;SDS011;21924;51.934;7.414;2023-04-07T12:02:33;4.47;;;3.13;;
35803;SDS011;21924;51.934;7.414;2023-04-07T12:05:18;74.53;;;44.78;;
35803;SDS011;21924;51.934;7.414;2023-04-07T12:08:02;17.05;;;10.32;;
35803;SDS011;21924;51.934;7.414;2023-04-07T12:10:47;19.13;;;7.05;;
35803;SDS011;21924;51.934;7.414;2023-04-07T12:13:31;6.88;;;4.50;;
35803;SDS011;21924;51.934;7.414;2023-04-07T12:16:15;8.52;;;5.15;;
35803;SDS011;21924;51.934;7.414;2023-04-07T12:19:00;7.25;;;4.25;;
35803;SDS011;21924;51.934;7.414;2023-04-07T12:21:44;6.05;;;4.20;;
35803;SDS011;21924;51.934;7.414;2023-04-07T12:24:29;8.82;;;5.10;;
35803;SDS011;21924;51.934;7.414;2023-04-07T12:27:14;6.43;;;4.45;;
35803;SDS011;21924;51.934;7.414;2023-04-07T12:29:59;6.10;;;4.18;;
35803;SDS011;21924;51.934;7.414;2023-04-07T12:32:44;7.35;;;4.80;;
35803;SDS011;21924;51.934;7.414;2023-04-07T12:35:28;6.15;;;4.07;;
35803;SDS011;21924;51.934;7.414;2023-04-07T12:38:13;7.07;;;4.40;;
35803;SDS011;21924;51.934;7.414;2023-04-07T12:40:57;8.48;;;4.55;;
35803;SDS011;21924;51.934;7.414;2023-04-07T12:43:45;7.10;;;4.88;;
35803;SDS011;21924;51.934;7.414;2023-04-07T12:46:29;7.97;;;4.38;;
35803;SDS011;21924;51.934;7.414;2023-04-07T12:49:14;7.93;;;4.60;;
35803;SDS011;21924;51.934;7.414;2023-04-07T12:51:59;8.95;;;4.68;;
35803;SDS011;21924;51.934;7.414;2023-04-07T12:54:43;8.55;;;5.35;;
35803;SDS011;21924;51.934;7.414;2023-04-07T12:57:27;13.30;;;5.20;;
35803;SDS011;21924;51.934;7.414;2023-04-07T13:00:12;6.25;;;4.60;;
35803;SDS011;21924;51.934;7.414;2023-04-07T13:02:56;9.40;;;4.80;;
35803;SDS011;21924;51.934;7.414;2023-04-07T13:05:41;7.45;;;4.50;;
35803;SDS011;21924;51.934;7.414;2023-04-07T13:08:26;5.85;;;3.95;;
35803;SDS011;21924;51.934;7.414;2023-04-07T13:11:10;5.80;;;4.10;;
35803;SDS011;21924;51.934;7.414;2023-04-07T13:13:55;8.55;;;5.18;;
35803;SDS011;21924;51.934;7.414;2023-04-07T13:16:39;5.82;;;4.45;;
35803;SDS011;21924;51.934;7.414;2023-04-07T13:19:23;5.32;;;4.07;;
35803;SDS011;21924;51.934;7.414;2023-04-07T13:22:07;12.20;;;4.88;;
35803;SDS011;21924;51.934;7.414;2023-04-07T13:24:52;7.95;;;5.35;;
35803;SDS011;21924;51.934;7.414;2023-04-07T13:27:36;8.32;;;4.85;;
35803;SDS011;21924;51.934;7.414;2023-04-07T13:30:20;5.57;;;4.13;;
35803;SDS011;21924;51.934;7.414;2023-04-07T13:33:05;7.40;;;4.43;;
35803;SDS011;21924;51.934;7.414;2023-04-07T13:35:49;7.60;;;5.78;;
35803;SDS011;21924;51.934;7.414;2023-04-07T13:38:33;9.02;;;4.60;;
35803;SDS011;21924;51.934;7.414;2023-04-07T13:41:18;6.00;;;4.22;;
35803;SDS011;21924;51.934;7.414;2023-04-07T13:44:03;8.43;;;5.40;;
35803;SDS011;21924;51.934;7.414;2023-04-07T13:46:47;9.93;;;5.15;;
35803;SDS011;21924;51.934;7.414;2023-04-07T13:49:32;7.28;;;4.68;;
35803;SDS011;21924;51.934;7.414;2023-04-07T13:52:16;7.40;;;3.90;;
35803;SDS011;21924;51.934;7.414;2023-04-07T13:55:01;4.65;;;4.00;;
35803;SDS011;21924;51.934;7.414;2023-04-07T13:57:46;4.40;;;3.60;;
35803;SDS011;21924;51.934;7.414;2023-04-07T14:00:31;5.28;;;3.50;;
35803;SDS011;21924;51.934;7.414;2023-04-07T14:06:02;3.45;;;2.80;;
35803;SDS011;21924;51.934;7.414;2023-04-07T14:08:47;5.53;;;3.53;;
35803;SDS011;21924;51.934;7.414;2023-04-07T14:11:32;5.28;;;3.80;;
35803;SDS011;21924;51.934;7.414;2023-04-07T14:14:17;5.60;;;4.05;;
35803;SDS011;21924;51.934;7.414;2023-04-07T14:17:01;6.63;;;4.00;;
35803;SDS011;21924;51.934;7.414;2023-04-07T14:19:46;9.05;;;4.25;;
35803;SDS011;21924;51.934;7.414;2023-04-07T14:22:31;5.85;;;4.00;;
35803;SDS011;21924;51.934;7.414;2023-04-07T14:25:15;5.32;;;3.50;;
35803;SDS011;21924;51.934;7.414;2023-04-07T14:27:59;5.95;;;3.95;;
35803;SDS011;21924;51.934;7.414;2023-04-07T14:30:44;10.15;;;3.90;;
35803;SDS011;21924;51.934;7.414;2023-04-07T14:33:28;6.47;;;3.90;;
35803;SDS011;21924;51.934;7.414;2023-04-07T14:36:13;5.57;;;3.35;;
35803;SDS011;21924;51.934;7.414;2023-04-07T14:38:59;5.88;;;4.20;;
35803;SDS011;21924;51.934;7.414;2023-04-07T14:41:43;15.63;;;4.57;;
35803;SDS011;21924;51.934;7.414;2023-04-07T14:47:15;5.63;;;4.20;;
35803;SDS011;21924;51.934;7.414;2023-04-07T14:50:00;5.10;;;3.55;;
35803;SDS011;21924;51.934;7.414;2023-04-07T14:52:44;4.68;;;3.47;;
35803;SDS011;21924;51.934;7.414;2023-04-07T14:55:28;7.30;;;3.58;;
35803;SDS011;21924;51.934;7.414;2023-04-07T14:58:13;6.40;;;3.75;;
35803;SDS011;21924;51.934;7.414;2023-04-07T15:00:58;3.97;;;3.30;;
35803;SDS011;21924;51.934;7.414;2023-04-07T15:03:42;4.13;;;3.08;;
35803;SDS011;21924;51.934;7.414;2023-04-07T15:06:27;12.82;;;3.42;;
35803;SDS011;21924;51.934;7.414;2023-04-07T15:09:11;7.28;;;3.53;;
35803;SDS011;21924;51.934;7.414;2023-04-07T15:11:55;7.30;;;3.22;;
35803;SDS011;21924;51.934;7.414;2023-04-07T15:14:40;4.78;;;3.40;;
35803;SDS011;21924;51.934;7.414;2023-04-07T15:17:24;7.18;;;3.88;;
35803;SDS011;21924;51.934;7.414;2023-04-07T15:20:08;11.98;;;4.90;;
35803;SDS011;21924;51.934;7.414;2023-04-07T15:22:53;8.18;;;4.10;;
35803;SDS011;21924;51.934;7.414;2023-04-07T15:25:37;8.05;;;4.20;;
35803;SDS011;21924;51.934;7.414;2023-04-07T15:28:21;10.43;;;5.18;;
35803;SDS011;21924;51.934;7.414;2023-04-07T15:31:06;7.90;;;3.45;;
35803;SDS011;21924;51.934;7.414;2023-04-07T15:33:51;6.07;;;3.80;;
35803;SDS011;21924;51.934;7.414;2023-04-07T15:36:35;4.85;;;3.30;;
35803;SDS011;21924;51.934;7.414;2023-04-07T15:39:19;7.05;;;4.40;;
35803;SDS011;21924;51.934;7.414;2023-04-07T15:42:04;5.90;;;3.58;;
35803;SDS011;21924;51.934;7.414;2023-04-07T15:44:52;6.70;;;3.88;;
35803;SDS011;21924;51.934;7.414;2023-04-07T15:47:37;4.10;;;3.17;;
35803;SDS011;21924;51.934;7.414;2023-04-07T15:50:20;16.27;;;6.78;;
35803;SDS011;21924;51.934;7.414;2023-04-07T15:53:06;23.00;;;8.73;;
35803;SDS011;21924;51.934;7.414;2023-04-07T15:55:50;14.25;;;6.05;;
35803;SDS011;21924;51.934;7.414;2023-04-07T15:58:34;20.00;;;7.25;;
35803;SDS011;21924;51.934;7.414;2023-04-07T16:01:19;13.90;;;5.30;;
35803;SDS011;21924;51.934;7.414;2023-04-07T16:04:03;19.52;;;5.28;;
35803;SDS011;21924;51.934;7.414;2023-04-07T16:06:48;8.30;;;4.32;;
35803;SDS011;21924;51.934;7.414;2023-04-07T16:09:32;4.75;;;3.55;;
35803;SDS011;21924;51.934;7.414;2023-04-07T16:12:16;12.63;;;6.18;;
35803;SDS011;21924;51.934;7.414;2023-04-07T16:15:01;13.20;;;5.80;;
35803;SDS011;21924;51.934;7.414;2023-04-07T16:17:45;19.85;;;11.52;;
35803;SDS011;21924;51.934;7.414;2023-04-07T16:20:31;10.43;;;5.57;;
35803;SDS011;21924;51.934;7.414;2023-04-07T16:23:15;5.75;;;4.30;;
35803;SDS011;21924;51.934;7.414;2023-04-07T16:26:00;4.53;;;3.70;;
35803;SDS011;21924;51.934;7.414;2023-04-07T16:28:44;8.10;;;3.90;;
35803;SDS011;21924;51.934;7.414;2023-04-07T16:31:28;4.10;;;3.10;;
35803;SDS011;21924;51.934;7.414;2023-04-07T16:34:13;8.75;;;3.38;;
35803;SDS011;21924;51.934;7.414;2023-04-07T16:36:57;5.10;;;3.50;;
35803;SDS011;21924;51.934;7.414;2023-04-07T16:39:41;4.97;;;3.45;;
35803;SDS011;21924;51.934;7.414;2023-04-07T16:42:26;5.07;;;3.83;;
35803;SDS011;21924;51.934;7.414;2023-04-07T16:45:13;6.03;;;3.50;;